createdAt,value
2022-10-23T00:05:56.699Z,999.35
2022-10-23T00:10:56.447Z,999.33
2022-10-23T00:15:56.669Z,999.35
2022-10-23T00:20:56.334Z,999.39
2022-10-23T00:25:56.335Z,999.40
2022-10-23T00:30:56.231Z,999.37
2022-10-23T00:35:56.183Z,999.43
2022-10-23T00:40:56.076Z,999.43
2022-10-23T00:45:56.333Z,999.38
2022-10-23T00:50:56.028Z,999.47
2022-10-23T00:55:59.579Z,999.43
2022-10-23T01:00:55.990Z,999.34
2022-10-23T01:05:56.003Z,999.46
2022-10-23T01:10:55.630Z,999.33
2022-10-23T01:15:55.674Z,999.31
2022-10-23T01:20:55.635Z,999.23
2022-10-23T01:25:55.559Z,999.30
2022-10-23T01:30:55.494Z,999.22
2022-10-23T01:35:55.379Z,999.23
2022-10-23T01:40:55.441Z,999.27
2022-10-23T01:45:55.240Z,999.30
2022-10-23T01:50:55.269Z,999.23
2022-10-23T01:55:58.339Z,999.19
2022-10-23T02:00:55.257Z,999.17
2022-10-23T02:05:55.554Z,999.16
2022-10-23T02:10:54.889Z,999.10
2022-10-23T02:15:54.844Z,999.07
2022-10-23T02:20:54.937Z,999.04
2022-10-23T02:25:54.728Z,998.87
2022-10-23T02:30:54.737Z,998.85
2022-10-23T02:35:54.853Z,998.77
2022-10-23T02:40:54.509Z,998.73
2022-10-23T02:45:54.524Z,998.69
2022-10-23T02:50:54.360Z,998.79
2022-10-23T02:55:57.409Z,998.84
2022-10-23T03:00:54.284Z,998.87
2022-10-23T03:05:54.189Z,998.83
2022-10-23T03:10:54.311Z,998.78
2022-10-23T03:15:55.489Z,998.75
2022-10-23T03:20:54.078Z,998.74
2022-10-23T03:25:53.976Z,998.70
2022-10-23T03:31:01.875Z,998.67
2022-10-23T03:37:30.015Z,998.75
2022-10-23T03:42:29.714Z,998.85
2022-10-23T03:47:29.874Z,998.81
2022-10-23T03:52:29.632Z,998.79
2022-10-23T03:57:29.590Z,998.70
2022-10-23T04:02:29.595Z,998.78
2022-10-23T04:07:29.454Z,998.78
2022-10-23T04:12:29.324Z,998.85
2022-10-23T04:17:29.387Z,998.87
2022-10-23T04:22:29.243Z,998.87
2022-10-23T04:27:32.301Z,998.75
2022-10-23T04:32:29.134Z,998.72
2022-10-23T04:37:29.070Z,998.75
2022-10-23T04:42:29.028Z,998.78
2022-10-23T04:47:28.968Z,998.64
2022-10-23T04:52:28.859Z,998.65
2022-10-23T04:57:28.990Z,998.65
2022-10-23T05:02:28.644Z,998.64
2022-10-23T05:07:28.648Z,998.67
2022-10-23T05:12:28.543Z,998.62
2022-10-23T05:17:29.219Z,998.55
2022-10-23T05:22:28.411Z,998.58
2022-10-23T05:27:31.409Z,998.59
2022-10-23T05:32:28.277Z,998.54
2022-10-23T05:37:28.281Z,998.52
2022-10-23T05:42:28.124Z,998.46
2022-10-23T05:47:28.115Z,998.55
2022-10-23T05:52:28.003Z,998.60
2022-10-23T05:57:28.103Z,998.57
2022-10-23T06:02:27.951Z,998.55
2022-10-23T06:07:30.107Z,998.61
2022-10-23T06:12:27.793Z,998.65
2022-10-23T06:17:27.709Z,998.59
2022-10-23T06:22:27.598Z,998.55
2022-10-23T06:27:30.694Z,998.61
2022-10-23T06:32:27.524Z,998.55
2022-10-23T06:37:27.439Z,998.41
2022-10-23T06:42:27.364Z,998.32
2022-10-23T06:47:27.354Z,998.42
2022-10-23T06:52:46.076Z,998.51
2022-10-23T06:57:28.189Z,998.57
2022-10-23T07:02:27.289Z,998.54
2022-10-23T07:07:27.069Z,998.58
2022-10-23T07:12:26.927Z,998.59
2022-10-23T07:17:26.974Z,998.44
2022-10-23T07:22:26.824Z,998.32
2022-10-23T07:27:29.965Z,998.22
2022-10-23T07:32:26.824Z,998.08
2022-10-23T07:37:27.064Z,998.11
2022-10-23T07:42:26.546Z,998.12
2022-10-23T07:47:26.851Z,998.13
2022-10-23T07:52:26.479Z,998.16
2022-10-23T07:57:26.651Z,998.08
2022-10-23T08:02:26.458Z,998.05
2022-10-23T08:07:26.363Z,997.93
2022-10-23T08:12:26.534Z,997.83
2022-10-23T08:17:33.823Z,997.72
2022-10-23T08:22:26.134Z,997.75
2022-10-23T08:27:29.120Z,997.75
2022-10-23T08:32:25.909Z,997.72
2022-10-23T08:37:28.661Z,997.83
2022-10-23T08:42:25.736Z,997.85
2022-10-23T08:47:33.499Z,997.87
2022-10-23T08:55:37.159Z,997.74
2022-10-23T09:00:37.020Z,997.63
2022-10-23T09:05:36.844Z,997.56
2022-10-23T09:10:36.721Z,997.46
2022-10-23T09:15:36.546Z,997.48
2022-10-23T09:20:36.824Z,997.54
2022-10-23T09:25:36.472Z,997.46
2022-10-23T09:30:36.452Z,997.35
2022-10-23T09:35:36.265Z,997.34
2022-10-23T09:40:36.215Z,997.31
2022-10-23T09:45:40.199Z,997.17
2022-10-23T09:50:36.051Z,997.16
2022-10-23T09:55:36.069Z,997.11
2022-10-23T10:00:36.082Z,997.12
2022-10-23T10:05:36.027Z,996.99
2022-10-23T10:10:35.896Z,996.92
2022-10-23T10:15:35.781Z,996.91
2022-10-23T10:20:35.709Z,996.84
2022-10-23T10:25:45.714Z,996.78
2022-10-23T10:30:43.055Z,996.76
2022-10-23T10:35:35.627Z,996.72
2022-10-23T10:40:35.372Z,996.70
2022-10-23T10:45:46.494Z,996.56
2022-10-23T10:50:43.828Z,996.57
2022-10-23T10:55:35.379Z,996.49
2022-10-23T11:00:35.244Z,996.33
2022-10-23T11:05:35.182Z,996.30
2022-10-23T11:10:34.964Z,996.25
2022-10-23T11:15:35.129Z,996.17
2022-10-23T11:20:34.939Z,996.04
2022-10-23T11:25:34.929Z,995.89
2022-10-23T11:30:34.762Z,995.84
2022-10-23T11:35:34.707Z,995.66
2022-10-23T11:40:34.669Z,995.64
2022-10-23T11:45:37.730Z,995.61
2022-10-23T11:50:34.602Z,995.54
2022-10-23T11:55:34.549Z,995.45
2022-10-23T12:00:34.434Z,995.30
2022-10-23T12:05:34.667Z,995.14
2022-10-23T12:10:34.235Z,995.09
2022-10-23T12:15:34.296Z,995.03
2022-10-23T12:20:34.270Z,994.98
2022-10-23T12:25:34.114Z,994.86
2022-10-23T12:30:33.965Z,994.80
2022-10-23T12:35:33.974Z,994.82
2022-10-23T12:40:33.821Z,994.75
2022-10-23T12:45:36.841Z,994.72
2022-10-23T12:50:33.755Z,994.56
2022-10-23T12:55:35.907Z,994.43
2022-10-23T13:00:41.655Z,994.39
2022-10-23T13:05:33.559Z,994.39
2022-10-23T13:10:33.489Z,994.37
2022-10-23T13:15:33.529Z,994.28
2022-10-23T13:20:33.387Z,994.13
2022-10-23T13:25:33.437Z,994.10
2022-10-23T13:30:33.315Z,994.19
2022-10-23T13:35:33.136Z,994.10
2022-10-23T13:40:33.474Z,994.02
2022-10-23T13:45:36.000Z,993.98
2022-10-23T13:50:32.979Z,994.08
2022-10-23T13:55:33.100Z,994.07
2022-10-23T14:00:32.946Z,993.98
2022-10-23T14:05:33.118Z,993.91
2022-10-23T14:10:32.879Z,993.84
2022-10-23T14:15:32.729Z,993.84
2022-10-23T14:20:32.483Z,993.77
2022-10-23T14:25:32.599Z,993.84
2022-10-23T14:30:32.474Z,993.87
2022-10-23T14:35:32.324Z,993.71
2022-10-23T14:40:32.244Z,993.65
2022-10-23T14:45:35.342Z,993.71
2022-10-23T14:50:32.172Z,993.66
2022-10-23T14:55:32.154Z,993.65
2022-10-23T15:00:32.599Z,993.55
2022-10-23T15:05:31.982Z,993.60
2022-10-23T15:10:32.006Z,993.60
2022-10-23T15:15:31.889Z,993.64
2022-10-23T15:20:31.741Z,993.53
2022-10-23T15:25:31.890Z,993.56
2022-10-23T15:31:49.529Z,993.48
2022-10-23T15:36:49.420Z,993.46
2022-10-23T15:41:49.519Z,993.41
2022-10-23T15:46:49.309Z,993.23
2022-10-23T15:51:57.127Z,993.23
2022-10-23T15:56:56.146Z,993.13
2022-10-23T16:01:49.328Z,993.01
2022-10-23T16:06:49.045Z,992.99
2022-10-23T16:11:48.939Z,992.93
2022-10-23T16:16:48.939Z,992.78
2022-10-23T16:21:52.769Z,992.74
2022-10-23T16:26:48.760Z,992.71
2022-10-23T16:31:48.744Z,992.68
2022-10-23T16:36:48.579Z,992.76
2022-10-23T16:41:48.510Z,992.78
2022-10-23T16:46:48.450Z,992.69
2022-10-23T16:51:48.434Z,992.64
2022-10-23T16:56:48.829Z,992.53
2022-10-23T17:01:56.214Z,992.45
2022-10-23T17:06:48.236Z,992.50
2022-10-23T17:11:48.145Z,992.40
2022-10-23T17:16:48.139Z,992.45
2022-10-23T17:21:50.996Z,992.58
2022-10-23T17:26:47.996Z,992.63
2022-10-23T17:31:55.859Z,992.63
2022-10-23T17:36:55.047Z,992.54
2022-10-23T17:41:47.797Z,992.51
2022-10-23T17:46:47.690Z,992.37
2022-10-23T17:51:47.764Z,992.35
2022-10-23T17:56:47.511Z,992.21
2022-10-23T18:01:47.692Z,992.18
2022-10-23T18:06:47.479Z,992.19
2022-10-23T18:11:48.316Z,992.34
2022-10-23T18:16:47.230Z,992.35
2022-10-23T18:21:50.186Z,992.31
2022-10-23T18:26:47.174Z,992.38
2022-10-23T18:31:47.038Z,992.36
2022-10-23T18:36:46.954Z,992.35
2022-10-23T18:41:48.266Z,992.23
2022-10-23T18:46:46.873Z,991.97
2022-10-23T18:51:46.855Z,991.90
2022-10-23T18:56:46.855Z,991.61
2022-10-23T19:03:26.649Z,991.40
2022-10-23T19:08:26.651Z,991.43
2022-10-23T19:13:26.609Z,991.40
2022-10-23T19:18:26.314Z,991.16
2022-10-23T19:23:26.300Z,991.19
2022-10-23T19:28:26.320Z,991.28
2022-10-23T19:33:26.174Z,991.30
2022-10-23T19:38:26.099Z,991.48
2022-10-23T19:43:28.593Z,991.56
2022-10-23T19:48:25.999Z,991.63
2022-10-23T19:53:28.946Z,991.81
2022-10-23T19:58:25.874Z,991.85
2022-10-23T20:03:26.024Z,992.01
2022-10-23T20:08:25.697Z,992.13
2022-10-23T20:13:26.132Z,992.45
2022-10-23T20:18:25.850Z,992.72
2022-10-23T20:39:30.926Z,993.69
2022-10-23T20:44:30.704Z,993.53
2022-10-23T20:49:31.795Z,993.58
2022-10-23T20:54:30.542Z,993.52
2022-10-23T21:00:59.203Z,993.41
2022-10-23T21:07:31.631Z,993.31
2022-10-23T21:12:31.418Z,993.34
2022-10-23T21:22:31.357Z,993.48
2022-10-23T21:27:31.105Z,993.52
2022-10-23T21:32:31.080Z,993.55
2022-10-23T21:37:31.164Z,993.13
2022-10-23T21:42:38.990Z,993.37
2022-10-23T21:47:30.882Z,993.24
2022-10-23T21:52:30.919Z,993.09
2022-10-23T21:57:33.729Z,992.85
2022-10-23T22:02:30.676Z,992.97
2022-10-23T22:09:10.081Z,992.90
2022-10-23T22:14:18.266Z,992.97
2022-10-23T22:19:09.809Z,993.04
2022-10-23T22:24:09.733Z,993.03
2022-10-23T22:29:09.606Z,992.98
2022-10-23T22:34:24.994Z,992.93
2022-10-23T22:39:10.584Z,992.90
2022-10-23T22:44:09.417Z,992.91
2022-10-23T22:49:09.563Z,992.92
2022-10-23T22:54:09.689Z,993.02
2022-10-23T22:59:12.944Z,992.98
2022-10-23T23:04:25.994Z,992.86
2022-10-23T23:09:12.068Z,993.03
2022-10-23T23:14:09.059Z,993.05
2022-10-23T23:19:09.090Z,993.08
2022-10-23T23:24:08.869Z,992.99
2022-10-23T23:29:09.009Z,992.99
2022-10-23T23:34:08.778Z,993.00
2022-10-23T23:39:08.793Z,993.01
2022-10-23T23:44:08.656Z,993.10
2022-10-23T23:49:08.664Z,993.00
2022-10-23T23:54:08.517Z,993.14
2022-10-23T23:59:11.581Z,993.27
